Spring Garden Atmospheric Data: 07/12/2019 Summary  Detailed Graphs  Station List

  Temperature     Wind Precipitation Visibility
Timestamp Air Wet
Bulb
Dew-
point
24-hr
Max
24-hr
Min
Relative
Humidity
Atmospheric
Pressure
Avg
Speed
Avg
Dir
Spot
Speed
Spot
Dir
Max
Speed
Max
Dir
  Rate Situation Start End 1 hr 3 hr 6 hr 12 hr 24 hr   Situation
Date Time °F °F °F °F °F % in Hg mph ° mph ° mph ° Y/N in/hr text Date Time Date Time in in in in in mi text
07/12/2019 12:08 AM 59.72 55.58 52.88 85.28 44.24 78.0 Not Reported 1.12 E 0.67 S 4.03 SE No 0.000 No Precipitation 06/03/2019 01:06 PM 06/03/2019 01:11 PM 0.000 0.000 0.000 0.000 0.000 Not Reported Not Reported
07/12/2019 12:23 AM 59.00 55.22 52.70 85.28 44.24 79.0 Not Reported 1.12 E 0.22 E 1.79 E No 0.000 No Precipitation 06/03/2019 01:06 PM 06/03/2019 01:11 PM 0.000 0.000 0.000 0.000 0.000 Not Reported Not Reported
07/12/2019 12:38 AM 58.28 54.32 51.62 85.28 44.24 78.0 Not Reported 1.34 SE 2.46 SE 2.46 NE No 0.000 No Precipitation 06/03/2019 01:06 PM 06/03/2019 01:11 PM 0.000 0.000 0.000 0.000 0.000 Not Reported Not Reported
07/12/2019 12:53 AM 57.74 54.14 51.44 85.28 44.24 79.0 Not Reported 1.12 SE 1.57 SE 3.58 S No 0.000 No Precipitation 06/03/2019 01:06 PM 06/03/2019 01:11 PM 0.000 0.000 0.000 0.000 0.000 Not Reported Not Reported
07/12/2019 01:08 AM 56.84 53.42 50.90 89.60 46.04 80.0 Not Reported 0.00 E 0.22 NE 2.68 SE No 0.000 No Precipitation 06/03/2019 01:06 PM 06/03/2019 01:11 PM 0.000 0.000 0.000 0.000 0.000 Not Reported Not Reported
07/12/2019 01:23 AM 56.12 53.24 50.90 89.60 46.04 82.0 Not Reported 0.67 SE 0.22 SE 0.89 E No 0.000 No Precipitation 06/03/2019 01:06 PM 06/03/2019 01:11 PM 0.000 0.000 0.000 0.000 0.000 Not Reported Not Reported
07/12/2019 01:38 AM 55.76 52.88 50.54 89.60 46.04 82.0 Not Reported 2.01 SE 2.68 SE 1.79 E No 0.000 No Precipitation 06/03/2019 01:06 PM 06/03/2019 01:11 PM 0.000 0.000 0.000 0.000 0.000 Not Reported Not Reported
07/12/2019 01:53 AM 55.22 52.34 50.36 89.60 46.04 83.0 Not Reported 1.57 E 0.89 E 3.80 SE No 0.000 No Precipitation 06/03/2019 01:06 PM 06/03/2019 01:11 PM 0.000 0.000 0.000 0.000 0.000 Not Reported Not Reported
07/12/2019 02:09 AM 54.50 51.80 50.00 89.60 46.04 84.0 Not Reported 0.89 E 0.89 E 2.24 SE No 0.000 No Precipitation 06/03/2019 01:06 PM 06/03/2019 01:11 PM 0.000 0.000 0.000 0.000 0.000 Not Reported Not Reported
07/12/2019 02:23 AM 54.14 51.62 49.82 89.60 46.04 85.0 Not Reported 0.89 E 0.89 E 1.12 SE No 0.000 No Precipitation 06/03/2019 01:06 PM 06/03/2019 01:11 PM 0.000 0.000 0.000 0.000 0.000 Not Reported Not Reported
07/12/2019 02:38 AM 53.42 51.08 49.28 89.60 46.04 85.0 Not Reported 0.67 E 0.67 E 1.57 E No 0.000 No Precipitation 06/03/2019 01:06 PM 06/03/2019 01:11 PM 0.000 0.000 0.000 0.000 0.000 Not Reported Not Reported
07/12/2019 02:53 AM 52.88 50.90 49.10 89.60 46.04 86.0 Not Reported 1.12 SE 1.57 E 1.34 E No 0.000 No Precipitation 06/03/2019 01:06 PM 06/03/2019 01:11 PM 0.000 0.000 0.000 0.000 0.000 Not Reported Not Reported
07/12/2019 03:08 AM 52.70 50.72 49.28 89.60 46.04 87.0 Not Reported 1.12 E 0.67 E 2.46 E No 0.000 No Precipitation 06/03/2019 01:06 PM 06/03/2019 01:11 PM 0.000 0.000 0.000 0.000 0.000 Not Reported Not Reported
07/12/2019 03:23 AM 52.16 50.18 48.56 89.60 46.04 87.0 Not Reported 0.45 E 0.67 E 0.89 E No 0.000 No Precipitation 06/03/2019 01:06 PM 06/03/2019 01:11 PM 0.000 0.000 0.000 0.000 0.000 Not Reported Not Reported
07/12/2019 03:39 AM 51.98 50.18 48.56 89.60 46.04 88.0 Not Reported 0.67 SE 1.34 E 1.57 SE No 0.000 No Precipitation 06/03/2019 01:06 PM 06/03/2019 01:11 PM 0.000 0.000 0.000 0.000 0.000 Not Reported Not Reported
07/12/2019 03:53 AM 51.44 49.82 48.02 89.60 46.04 88.0 Not Reported 0.45 E 0.45 SE 1.79 SE No 0.000 No Precipitation 06/03/2019 01:06 PM 06/03/2019 01:11 PM 0.000 0.000 0.000 0.000 0.000 Not Reported Not Reported
07/12/2019 04:08 AM 51.08 49.28 48.02 89.60 46.04 88.0 Not Reported 0.22 E 0.22 E 1.34 E No 0.000 No Precipitation 06/03/2019 01:06 PM 06/03/2019 01:11 PM 0.000 0.000 0.000 0.000 0.000 Not Reported Not Reported
07/12/2019 04:24 AM 50.54 48.92 47.66 89.60 46.04 89.0 Not Reported 0.89 E 0.00 E 2.46 E No 0.000 No Precipitation 06/03/2019 01:06 PM 06/03/2019 01:11 PM 0.000 0.000 0.000 0.000 0.000 Not Reported Not Reported
07/12/2019 04:38 AM 50.18 48.74 47.48 89.60 46.04 89.0 Not Reported 0.22 E 0.67 E 1.12 E No 0.000 No Precipitation 06/03/2019 01:06 PM 06/03/2019 01:11 PM 0.000 0.000 0.000 0.000 0.000 Not Reported Not Reported
07/12/2019 04:53 AM 50.18 48.74 47.30 89.60 46.04 89.0 Not Reported 2.24 SE 2.24 SE 2.01 SE No 0.000 No Precipitation 06/03/2019 01:06 PM 06/03/2019 01:11 PM 0.000 0.000 0.000 0.000 0.000 Not Reported Not Reported
07/12/2019 05:08 AM 49.82 48.20 46.94 89.60 46.04 89.0 Not Reported 2.46 SE 2.01 SE 2.91 SE No 0.000 No Precipitation 06/03/2019 01:06 PM 06/03/2019 01:11 PM 0.000 0.000 0.000 0.000 0.000 Not Reported Not Reported
07/12/2019 05:23 AM 49.46 48.02 46.76 89.60 46.04 90.0 Not Reported 2.01 SE 1.57 E 2.24 SE No 0.000 No Precipitation 06/03/2019 01:06 PM 06/03/2019 01:11 PM 0.000 0.000 0.000 0.000 0.000 Not Reported Not Reported
07/12/2019 05:38 AM 49.10 47.66 46.58 89.60 46.04 91.0 Not Reported 0.45 E 0.45 E 3.58 SE No 0.000 No Precipitation 06/03/2019 01:06 PM 06/03/2019 01:11 PM 0.000 0.000 0.000 0.000 0.000 Not Reported Not Reported
07/12/2019 05:53 AM 48.56 47.12 46.04 89.60 46.04 90.0 Not Reported 0.45 E 0.67 E 1.12 E No 0.000 No Precipitation 06/03/2019 01:06 PM 06/03/2019 01:11 PM 0.000 0.000 0.000 0.000 0.000 Not Reported Not Reported
07/12/2019 06:08 AM 48.38 46.94 45.68 89.60 46.04 90.0 Not Reported 0.00 N 0.22 SE 0.89 E No 0.000 No Precipitation 06/03/2019 01:06 PM 06/03/2019 01:11 PM 0.000 0.000 0.000 0.000 0.000 Not Reported Not Reported
07/12/2019 06:23 AM 48.02 46.58 45.32 89.60 46.04 90.0 Not Reported 0.89 SE 1.57 SE 1.57 E No 0.000 No Precipitation 06/03/2019 01:06 PM 06/03/2019 01:11 PM 0.000 0.000 0.000 0.000 0.000 Not Reported Not Reported
07/12/2019 06:38 AM 47.66 46.58 45.50 89.60 46.04 91.0 Not Reported 1.12 E 0.45 SE 2.91 SE No 0.000 No Precipitation 06/03/2019 01:06 PM 06/03/2019 01:11 PM 0.000 0.000 0.000 0.000 0.000 Not Reported Not Reported
07/12/2019 06:53 AM 47.30 46.04 44.78 89.60 46.04 91.0 Not Reported 0.67 E 0.67 E 1.12 E No 0.000 No Precipitation 06/03/2019 01:06 PM 06/03/2019 01:11 PM 0.000 0.000 0.000 0.000 0.000 Not Reported Not Reported
07/12/2019 07:08 AM 46.94 45.86 44.60 89.60 46.04 91.0 Not Reported 0.89 E 1.34 E 1.34 E No 0.000 No Precipitation 06/03/2019 01:06 PM 06/03/2019 01:11 PM 0.000 0.000 0.000 0.000 0.000 Not Reported Not Reported
07/12/2019 07:23 AM 46.94 45.68 44.60 89.60 46.04 91.0 Not Reported 0.00 E 0.00 SE 0.89 E No 0.000 No Precipitation 06/03/2019 01:06 PM 06/03/2019 01:11 PM 0.000 0.000 0.000 0.000 0.000 Not Reported Not Reported
07/12/2019 07:38 AM 46.94 45.68 44.60 89.60 46.04 91.0 Not Reported 0.67 E 0.22 SE 1.57 E No 0.000 No Precipitation 06/03/2019 01:06 PM 06/03/2019 01:11 PM 0.000 0.000 0.000 0.000 0.000 Not Reported Not Reported
07/12/2019 07:53 AM 46.94 45.50 44.42 89.60 46.04 90.0 Not Reported 1.12 E 1.12 E 1.34 SE No 0.000 No Precipitation 06/03/2019 01:06 PM 06/03/2019 01:11 PM 0.000 0.000 0.000 0.000 0.000 Not Reported Not Reported
07/12/2019 08:08 AM 47.12 45.68 44.42 89.60 46.04 90.0 Not Reported 1.34 E 1.12 E 1.57 E No 0.000 No Precipitation 06/03/2019 01:06 PM 06/03/2019 01:11 PM 0.000 0.000 0.000 0.000 0.000 Not Reported Not Reported
07/12/2019 08:23 AM 48.02 46.58 45.14 89.60 46.04 89.0 Not Reported 0.67 E 0.89 E 1.79 E No 0.000 No Precipitation 06/03/2019 01:06 PM 06/03/2019 01:11 PM 0.000 0.000 0.000 0.000 0.000 Not Reported Not Reported
07/12/2019 08:38 AM 50.00 48.74 46.94 89.60 46.04 88.0 Not Reported 0.00 N 0.00 E 1.12 SE No 0.000 No Precipitation 06/03/2019 01:06 PM 06/03/2019 01:11 PM 0.000 0.000 0.000 0.000 0.000 Not Reported Not Reported
07/12/2019 08:53 AM 51.62 49.64 47.66 89.60 46.04 85.0 Not Reported 0.00 S 0.00 E 0.22 SE No 0.000 No Precipitation 06/03/2019 01:06 PM 06/03/2019 01:11 PM 0.000 0.000 0.000 0.000 0.000 Not Reported Not Reported
07/12/2019 09:09 AM 54.32 51.62 48.92 89.60 46.04 81.0 Not Reported 0.00 N 0.00 E 0.00 NE No 0.000 No Precipitation 06/03/2019 01:06 PM 06/03/2019 01:11 PM 0.000 0.000 0.000 0.000 0.000 Not Reported Not Reported
07/12/2019 09:23 AM 57.02 53.06 49.82 89.60 46.04 76.0 Not Reported 0.00 NW 1.57 NW 0.22 S No 0.000 No Precipitation 06/03/2019 01:06 PM 06/03/2019 01:11 PM 0.000 0.000 0.000 0.000 0.000 Not Reported Not Reported
07/12/2019 09:38 AM 59.54 53.78 49.46 89.60 46.04 69.0 Not Reported 1.34 N 0.67 N 2.91 NW No 0.000 No Precipitation 06/03/2019 01:06 PM 06/03/2019 01:11 PM 0.000 0.000 0.000 0.000 0.000 Not Reported Not Reported
07/12/2019 09:53 AM 60.80 54.50 49.82 89.60 46.04 67.0 Not Reported 0.67 N 0.22 N 2.01 N No 0.000 No Precipitation 06/03/2019 01:06 PM 06/03/2019 01:11 PM 0.000 0.000 0.000 0.000 0.000 Not Reported Not Reported
07/12/2019 10:08 AM 63.50 55.76 50.18 89.60 46.04 61.0 Not Reported 2.01 NW 0.00 NW 2.46 N No 0.000 No Precipitation 06/03/2019 01:06 PM 06/03/2019 01:11 PM 0.000 0.000 0.000 0.000 0.000 Not Reported Not Reported
07/12/2019 10:23 AM 65.48 56.48 49.28 89.60 46.04 54.0 Not Reported 1.12 NW 0.45 NW 1.79 W No 0.000 No Precipitation 06/03/2019 01:06 PM 06/03/2019 01:11 PM 0.000 0.000 0.000 0.000 0.000 Not Reported Not Reported
07/12/2019 10:39 AM 67.28 57.74 49.46 89.60 46.04 53.0 Not Reported 1.34 NW 3.58 N 2.91 NW No 0.000 No Precipitation 06/03/2019 01:06 PM 06/03/2019 01:11 PM 0.000 0.000 0.000 0.000 0.000 Not Reported Not Reported
07/12/2019 10:53 AM 68.72 58.46 50.72 89.60 46.04 52.0 Not Reported 2.01 NW 2.46 N 3.80 W No 0.000 No Precipitation 06/03/2019 01:06 PM 06/03/2019 01:11 PM 0.000 0.000 0.000 0.000 0.000 Not Reported Not Reported
07/12/2019 11:08 AM 69.98 58.82 51.26 89.60 46.04 49.0 Not Reported 3.13 NW 2.24 W 3.58 NW No 0.000 No Precipitation 06/03/2019 01:06 PM 06/03/2019 01:11 PM 0.000 0.000 0.000 0.000 0.000 Not Reported Not Reported
07/12/2019 11:23 AM 71.60 59.90 51.44 89.60 46.04 49.0 Not Reported 3.36 NW 3.80 NW 5.82 NW No 0.000 No Precipitation 06/03/2019 01:06 PM 06/03/2019 01:11 PM 0.000 0.000 0.000 0.000 0.000 Not Reported Not Reported
07/12/2019 11:38 AM 73.04 60.44 52.34 89.60 46.04 47.0 Not Reported 3.13 NW 3.36 W 5.82 NW No 0.000 No Precipitation 06/03/2019 01:06 PM 06/03/2019 01:11 PM 0.000 0.000 0.000 0.000 0.000 Not Reported Not Reported
07/12/2019 11:54 AM 74.48 60.98 51.80 89.60 46.04 45.0 Not Reported 4.47 NW 2.01 NW 5.37 NW No 0.000 No Precipitation 06/03/2019 01:06 PM 06/03/2019 01:11 PM 0.000 0.000 0.000 0.000 0.000 Not Reported Not Reported
07/12/2019 12:08 PM 76.46 62.24 52.16 89.60 46.04 41.0 Not Reported 1.79 NW 2.68 N 5.14 NW No 0.000 No Precipitation 06/03/2019 01:06 PM 06/03/2019 01:11 PM 0.000 0.000 0.000 0.000 0.000 Not Reported Not Reported
07/12/2019 12:23 PM 78.26 62.06 53.06 89.60 46.04 39.0 Not Reported 2.46 NW 2.46 NW 5.59 W No 0.000 No Precipitation 06/03/2019 01:06 PM 06/03/2019 01:11 PM 0.000 0.000 0.000 0.000 0.000 Not Reported Not Reported
07/12/2019 12:38 PM 78.98 61.70 49.64 89.60 46.04 39.0 Not Reported 2.68 N 1.57 NW 4.92 W No 0.000 No Precipitation 06/03/2019 01:06 PM 06/03/2019 01:11 PM 0.000 0.000 0.000 0.000 0.000 Not Reported Not Reported
07/12/2019 12:53 PM 80.78 62.06 49.28 89.60 46.04 37.0 Not Reported 3.58 NW 3.80 N 4.70 NW No 0.000 No Precipitation 06/03/2019 01:06 PM 06/03/2019 01:11 PM 0.000 0.000 0.000 0.000 0.000 Not Reported Not Reported
07/12/2019 01:08 PM 82.40 61.88 47.66 89.60 46.04 31.0 Not Reported 2.68 NW 1.12 N 3.80 N No 0.000 No Precipitation 06/03/2019 01:06 PM 06/03/2019 01:11 PM 0.000 0.000 0.000 0.000 0.000 Not Reported Not Reported
07/12/2019 01:23 PM 84.38 62.42 46.94 89.60 46.04 25.0 Not Reported 2.68 NW 3.58 W 5.82 W No 0.000 No Precipitation 06/03/2019 01:06 PM 06/03/2019 01:11 PM 0.000 0.000 0.000 0.000 0.000 Not Reported Not Reported
07/12/2019 01:39 PM 84.92 62.42 45.86 89.60 46.04 25.0 Not Reported 3.36 NE 2.01 NW 5.37 NW No 0.000 No Precipitation 06/03/2019 01:06 PM 06/03/2019 01:11 PM 0.000 0.000 0.000 0.000 0.000 Not Reported Not Reported
07/12/2019 01:54 PM 85.64 64.40 48.56 89.60 46.04 29.0 Not Reported 3.58 N 3.13 N 6.04 W No 0.000 No Precipitation 06/03/2019 01:06 PM 06/03/2019 01:11 PM 0.000 0.000 0.000 0.000 0.000 Not Reported Not Reported
07/12/2019 02:08 PM 86.00 63.68 48.38 89.60 46.04 27.0 Not Reported 3.58 NW 5.14 N 6.04 N No 0.000 No Precipitation 06/03/2019 01:06 PM 06/03/2019 01:11 PM 0.000 0.000 0.000 0.000 0.000 Not Reported Not Reported
07/12/2019 02:23 PM 86.90 65.66 48.56 89.60 46.04 26.0 Not Reported 2.46 N 4.25 W 9.84 W No 0.000 No Precipitation 06/03/2019 01:06 PM 06/03/2019 01:11 PM 0.000 0.000 0.000 0.000 0.000 Not Reported Not Reported
07/12/2019 02:38 PM 87.08 62.60 44.42 89.60 46.04 23.0 Not Reported 4.92 NW 1.34 NW 7.38 W No 0.000 No Precipitation 06/03/2019 01:06 PM 06/03/2019 01:11 PM 0.000 0.000 0.000 0.000 0.000 Not Reported Not Reported
07/12/2019 02:53 PM 87.98 62.96 48.92 89.60 46.04 22.0 Not Reported 2.46 NW 2.46 SW 7.83 NW No 0.000 No Precipitation 06/03/2019 01:06 PM 06/03/2019 01:11 PM 0.000 0.000 0.000 0.000 0.000 Not Reported Not Reported
07/12/2019 03:08 PM 89.96 63.86 49.28 89.60 46.04 23.0 Not Reported 3.36 NW 4.70 NW 5.82 NW No 0.000 No Precipitation 06/03/2019 01:06 PM 06/03/2019 01:11 PM 0.000 0.000 0.000 0.000 0.000 Not Reported Not Reported
07/12/2019 03:23 PM 90.50 64.04 44.78 89.60 46.04 20.0 Not Reported 3.13 NW 1.57 E 6.26 N No 0.000 No Precipitation 06/03/2019 01:06 PM 06/03/2019 01:11 PM 0.000 0.000 0.000 0.000 0.000 Not Reported Not Reported
07/12/2019 03:38 PM 91.04 64.76 48.20 89.60 46.04 22.0 Not Reported 2.24 N 4.25 NW 7.16 NW No 0.000 No Precipitation 06/03/2019 01:06 PM 06/03/2019 01:11 PM 0.000 0.000 0.000 0.000 0.000 Not Reported Not Reported
07/12/2019 03:53 PM 89.78 64.22 43.70 89.60 46.04 20.0 Not Reported 3.80 NW 2.24 N 7.61 N No 0.000 No Precipitation 06/03/2019 01:06 PM 06/03/2019 01:11 PM 0.000 0.000 0.000 0.000 0.000 Not Reported Not Reported
07/12/2019 04:08 PM 89.96 63.68 45.14 89.60 46.04 21.0 Not Reported 3.58 N 2.68 NW 6.04 N No 0.000 No Precipitation 06/03/2019 01:06 PM 06/03/2019 01:11 PM 0.000 0.000 0.000 0.000 0.000 Not Reported Not Reported
07/12/2019 04:23 PM 89.60 63.50 43.52 89.60 46.04 20.0 Not Reported 2.46 N 2.68 E 6.71 N No 0.000 No Precipitation 06/03/2019 01:06 PM 06/03/2019 01:11 PM 0.000 0.000 0.000 0.000 0.000 Not Reported Not Reported
07/12/2019 04:38 PM 89.24 63.50 46.76 89.60 46.04 21.0 Not Reported 2.91 N 4.03 N 6.04 NW No 0.000 No Precipitation 06/03/2019 01:06 PM 06/03/2019 01:11 PM 0.000 0.000 0.000 0.000 0.000 Not Reported Not Reported
07/12/2019 04:53 PM 89.60 63.86 45.14 89.60 46.04 22.0 Not Reported 2.68 N 3.13 SW 3.80 N No 0.000 No Precipitation 06/03/2019 01:06 PM 06/03/2019 01:11 PM 0.000 0.000 0.000 0.000 0.000 Not Reported Not Reported
07/12/2019 05:08 PM 89.60 63.50 46.58 89.60 46.04 21.0 Not Reported 2.24 NW 4.03 N 4.92 N No 0.000 No Precipitation 06/03/2019 01:06 PM 06/03/2019 01:11 PM 0.000 0.000 0.000 0.000 0.000 Not Reported Not Reported
07/12/2019 05:23 PM 90.32 63.14 42.44 89.60 46.04 19.0 Not Reported 2.91 N 2.24 N 4.70 N No 0.000 No Precipitation 06/03/2019 01:06 PM 06/03/2019 01:11 PM 0.000 0.000 0.000 0.000 0.000 Not Reported Not Reported
07/12/2019 05:38 PM 89.06 63.68 45.86 89.60 46.04 24.0 Not Reported 2.01 NW 2.68 NE 4.92 N No 0.000 No Precipitation 06/03/2019 01:06 PM 06/03/2019 01:11 PM 0.000 0.000 0.000 0.000 0.000 Not Reported Not Reported
07/12/2019 05:53 PM 88.88 61.52 41.18 89.60 46.04 19.0 Not Reported 2.68 N 2.24 NE 6.04 N No 0.000 No Precipitation 06/03/2019 01:06 PM 06/03/2019 01:11 PM 0.000 0.000 0.000 0.000 0.000 Not Reported Not Reported
07/12/2019 06:08 PM 89.06 63.14 43.88 89.60 46.04 20.0 Not Reported 2.46 NE 3.36 N 5.59 NE No 0.000 No Precipitation 06/03/2019 01:06 PM 06/03/2019 01:11 PM 0.000 0.000 0.000 0.000 0.000 Not Reported Not Reported
07/12/2019 06:23 PM 87.08 62.06 44.06 89.60 46.04 22.0 Not Reported 2.24 N 2.01 NE 4.92 W No 0.000 No Precipitation 06/03/2019 01:06 PM 06/03/2019 01:11 PM 0.000 0.000 0.000 0.000 0.000 Not Reported Not Reported
07/12/2019 06:38 PM 87.62 62.78 43.88 89.60 46.04 22.0 Not Reported 2.46 NW 0.67 SE 3.58 NE No 0.000 No Precipitation 06/03/2019 01:06 PM 06/03/2019 01:11 PM 0.000 0.000 0.000 0.000 0.000 Not Reported Not Reported
07/12/2019 06:53 PM 86.90 62.06 44.06 89.60 46.04 22.0 Not Reported 1.57 S 2.24 SE 4.70 N No 0.000 No Precipitation 06/03/2019 01:06 PM 06/03/2019 01:11 PM 0.000 0.000 0.000 0.000 0.000 Not Reported Not Reported
07/12/2019 07:08 PM 86.18 62.60 45.14 89.60 46.04 27.0 Not Reported 1.79 NW 2.91 NE 3.80 W No 0.000 No Precipitation 06/03/2019 01:06 PM 06/03/2019 01:11 PM 0.000 0.000 0.000 0.000 0.000 Not Reported Not Reported
07/12/2019 07:23 PM 83.84 62.06 47.30 89.60 46.04 27.0 Not Reported 1.34 NE 1.34 SE 3.13 S No 0.000 No Precipitation 06/03/2019 01:06 PM 06/03/2019 01:11 PM 0.000 0.000 0.000 0.000 0.000 Not Reported Not Reported
07/12/2019 07:38 PM 84.92 62.06 46.04 89.60 46.04 26.0 Not Reported 2.24 NW 2.01 S 2.68 NW No 0.000 No Precipitation 06/03/2019 01:06 PM 06/03/2019 01:11 PM 0.000 0.000 0.000 0.000 0.000 Not Reported Not Reported
07/12/2019 07:53 PM 82.04 61.70 47.30 89.60 46.04 30.0 Not Reported 2.01 SE 1.12 S 5.59 N No 0.000 No Precipitation 06/03/2019 01:06 PM 06/03/2019 01:11 PM 0.000 0.000 0.000 0.000 0.000 Not Reported Not Reported
07/12/2019 08:08 PM 81.68 61.88 47.48 89.60 46.04 30.0 Not Reported 1.34 SE 0.67 E 2.46 W No 0.000 No Precipitation 06/03/2019 01:06 PM 06/03/2019 01:11 PM 0.000 0.000 0.000 0.000 0.000 Not Reported Not Reported
07/12/2019 08:23 PM 81.14 60.98 47.84 89.60 46.04 30.0 Not Reported 0.89 S 1.79 SE 1.79 SE No 0.000 No Precipitation 06/03/2019 01:06 PM 06/03/2019 01:11 PM 0.000 0.000 0.000 0.000 0.000 Not Reported Not Reported
07/12/2019 08:38 PM 77.18 60.98 49.46 89.60 46.04 36.0 Not Reported 1.12 E 0.00 S 1.79 SE No 0.000 No Precipitation 06/03/2019 01:06 PM 06/03/2019 01:11 PM 0.000 0.000 0.000 0.000 0.000 Not Reported Not Reported
07/12/2019 08:53 PM 75.38 60.44 50.00 89.60 46.04 40.0 Not Reported 0.22 SE 0.00 SE 1.57 SE No 0.000 No Precipitation 06/03/2019 01:06 PM 06/03/2019 01:11 PM 0.000 0.000 0.000 0.000 0.000 Not Reported Not Reported
07/12/2019 09:08 PM 73.04 60.98 52.16 89.60 46.04 49.0 Not Reported 0.22 NW 0.45 NW 1.12 W No 0.000 No Precipitation 06/03/2019 01:06 PM 06/03/2019 01:11 PM 0.000 0.000 0.000 0.000 0.000 Not Reported Not Reported
07/12/2019 09:23 PM 70.70 59.36 51.62 89.60 46.04 51.0 Not Reported 0.22 E 2.24 SE 0.67 SE No 0.000 No Precipitation 06/03/2019 01:06 PM 06/03/2019 01:11 PM 0.000 0.000 0.000 0.000 0.000 Not Reported Not Reported
07/12/2019 09:38 PM 69.44 58.82 51.26 89.60 46.04 52.0 Not Reported 1.34 SE 3.13 S 3.58 SE No 0.000 No Precipitation 06/03/2019 01:06 PM 06/03/2019 01:11 PM 0.000 0.000 0.000 0.000 0.000 Not Reported Not Reported
07/12/2019 09:53 PM 68.72 58.46 52.16 89.60 46.04 55.0 Not Reported 2.24 SE 0.89 E 3.13 S No 0.000 No Precipitation 06/03/2019 01:06 PM 06/03/2019 01:11 PM 0.000 0.000 0.000 0.000 0.000 Not Reported Not Reported
07/12/2019 10:08 PM 66.74 57.92 51.98 89.60 46.04 58.0 Not Reported 0.89 SE 2.01 SE 3.36 SE No 0.000 No Precipitation 06/03/2019 01:06 PM 06/03/2019 01:11 PM 0.000 0.000 0.000 0.000 0.000 Not Reported Not Reported
07/12/2019 10:23 PM 65.66 57.56 51.62 89.60 46.04 60.0 Not Reported 0.45 E 0.00 E 2.01 SE No 0.000 No Precipitation 06/03/2019 01:06 PM 06/03/2019 01:11 PM 0.000 0.000 0.000 0.000 0.000 Not Reported Not Reported
07/12/2019 10:38 PM 65.12 57.38 52.34 89.60 46.04 63.0 Not Reported 2.01 E 1.12 E 2.68 S No 0.000 No Precipitation 06/03/2019 01:06 PM 06/03/2019 01:11 PM 0.000 0.000 0.000 0.000 0.000 Not Reported Not Reported
07/12/2019 10:53 PM 64.58 57.20 51.98 89.60 46.04 63.0 Not Reported 3.58 SE 1.57 S 3.58 SE No 0.000 No Precipitation 06/03/2019 01:06 PM 06/03/2019 01:11 PM 0.000 0.000 0.000 0.000 0.000 Not Reported Not Reported
07/12/2019 11:08 PM 63.32 56.66 52.16 89.60 46.04 66.0 Not Reported 0.67 SE 2.24 SE 4.03 SE No 0.000 No Precipitation 06/03/2019 01:06 PM 06/03/2019 01:11 PM 0.000 0.000 0.000 0.000 0.000 Not Reported Not Reported
07/12/2019 11:23 PM 62.42 56.30 51.98 89.60 46.04 68.0 Not Reported 0.89 SE 0.45 E 0.67 E No 0.000 No Precipitation 06/03/2019 01:06 PM 06/03/2019 01:11 PM 0.000 0.000 0.000 0.000 0.000 Not Reported Not Reported
07/12/2019 11:38 PM 61.34 55.76 51.62 89.60 46.04 70.0 Not Reported 0.22 E 0.89 SE 2.01 E No 0.000 No Precipitation 06/03/2019 01:06 PM 06/03/2019 01:11 PM 0.000 0.000 0.000 0.000 0.000 Not Reported Not Reported
07/12/2019 11:53 PM 60.62 55.40 51.62 89.60 46.04 72.0 Not Reported 0.67 E 0.67 E 0.89 E No 0.000 No Precipitation 06/03/2019 01:06 PM 06/03/2019 01:11 PM 0.000 0.000 0.000 0.000 0.000 Not Reported Not Reported